CDT,Max TemperatureF,Mean TemperatureF,Min TemperatureF,Max Dew PointF,MeanDew PointF,Min DewpointF,Max Humidity, Mean Humidity, Min Humidity, Max Sea Level PressureIn, Mean Sea Level PressureIn, Min Sea Level PressureIn, Max VisibilityMiles, Mean VisibilityMiles, Min VisibilityMiles, Max Wind SpeedMPH, Mean Wind SpeedMPH, Max Gust SpeedMPH,PrecipitationIn, CloudCover, Events, WindDirDegrees
2012-6-1,69,54,42,46,40,35,86,58,32,29.98,29.87,29.78,10,10,10,9,2,,0.00,2,,240
2012-6-2,75,59,43,49,45,41,93,60,31,29.80,29.77,29.74,10,10,9,15,4,21,0.00,1,,313
2012-6-3,73,60,48,56,50,43,86,64,45,29.84,29.80,29.77,10,10,10,8,2,,0.00,4,,156
2012-6-4,81,65,50,56,47,39,94,57,24,29.97,29.92,29.84,10,9,2,14,3,24,0.00,0,,341
2012-6-5,82,64,48,53,48,44,89,54,28,30.03,29.99,29.94,10,10,10,9,2,,0.00,2,,176
2012-6-6,82,69,57,59,55,51,84,61,39,30.04,30.00,29.96,10,10,10,13,7,18,0.00,3,,143
2012-6-7,84,71,60,61,59,55,83,66,47,30.04,30.00,29.90,10,10,10,10,7,,0.00,2,,159
2012-6-8,82,73,64,62,59,56,87,63,42,29.88,29.79,29.69,10,10,10,18,9,24,0.00,0,,222
2012-6-9,91,75,60,61,58,54,90,55,31,29.69,29.61,29.52,10,10,8,25,7,34,0.00,0,,169
2012-6-10,82,68,55,70,59,52,94,75,48,29.70,29.58,29.50,10,9,1,22,12,32,0.35,5,Rain,228
2012-6-11,66,55,46,55,46,38,93,74,53,30.02,29.77,29.59,10,10,8,29,14,39,0.01,6,Rain,266
2012-6-12,66,52,41,46,39,35,87,65,35,30.19,30.12,30.02,10,10,10,16,10,,0.00,2,,291
2012-6-13,72,60,50,57,51,43,94,73,52,30.07,29.96,29.82,10,9,2,20,11,29,0.06,5,Rain,154
2012-6-14,77,66,57,66,57,49,94,78,53,29.86,29.75,29.70,10,10,5,18,11,31,0.47,5,Rain,170
2012-6-15,80,67,55,58,54,51,89,63,38,30.00,29.95,29.88,10,10,10,13,6,20,0.00,1,,237
2012-6-16,75,65,54,63,56,48,94,73,51,29.99,29.87,29.80,10,10,5,22,7,30,0.14,3,Rain,253
2012-6-17,75,62,50,63,54,47,94,74,42,29.82,29.63,29.43,10,9,2,22,9,30,0.24,3,Rain,179
2012-6-18,79,70,59,62,59,53,100,80,42,29.69,29.45,29.37,10,7,0,17,6,23,0.00,4,Fog,205
2012-6-19,64,62,59,61,58,53,96,90,70,29.81,29.72,29.64,10,6,1,16,6,25,2.18,7,Rain,43
2012-6-20,72,64,57,61,59,53,100,88,59,29.85,29.75,29.62,10,7,2,16,8,22,0.84,6,Rain,328
2012-6-21,73,63,53,56,53,51,96,77,48,29.99,29.93,29.84,10,10,10,16,10,24,0.02,4,Rain,292
2012-6-22,75,60,48,54,50,45,96,68,35,30.05,30.00,29.95,10,10,1,10,4,17,0.01,1,,297
2012-6-23,79,68,57,63,57,49,94,72,50,29.96,29.91,29.85,10,9,1,12,4,,0.30,5,Rain,127
2012-6-24,77,70,57,63,56,47,94,67,37,30.15,30.05,29.95,10,10,10,12,5,,0.00,2,,41
2012-6-25,77,67,57,53,51,49,81,58,38,30.20,30.12,30.01,10,10,10,9,6,,0.00,0,,130
2012-6-26,77,67,57,56,53,50,78,60,48,30.00,29.85,29.69,10,10,10,18,11,25,0.00,0,,146
2012-6-27,86,74,64,71,62,50,79,67,49,29.82,29.67,29.61,10,10,10,14,9,17,0.00,0,,200
2012-6-28,82,67,52,54,50,47,89,55,29,29.93,29.89,29.82,10,10,10,17,8,26,0.00,0,,282
2012-6-29,84,68,54,62,54,47,90,60,29,29.90,29.85,29.79,10,10,10,13,4,,0.00,0,,281
2012-6-30,82,68,55,65,57,53,96,64,38,29.91,29.88,29.84,10,10,10,8,3,,0.03,2,,251